Wolf Summit, West Virginia
Current Conditions -  °F | °C
As of 10:53 AM on Tuesday 21 Oct 2014 (Local Time) from KCKB Reporting Station
Light Rain Light Rain  
Wind Chill: 52°   Ceiling: 900
Heat Index: 52°   Visibility: 6mi
Dew Point: 50°   Wind: 6mph
Humidity: 93%   Direction: 230°SW
Pressure: 29.89"   Gusts: NA
Location:  39.3132°N, 80.625°W
Report Text: KCKB 211453Z 23005KT 6SM -RA BR OVC009 11/10 A2989 RMK AO2 RAB43 CIG 008V012 SLP117 P0000 60000 T01110100 58001
Loading
Personal Weather Stations






























Interactive Weather Map
Tropical Storm Tracking
New forecast layout! Learn more

10-Day Weather Forecast

Advertisements
Track Severe Weather on mobile